Time;durP1;ratioP1;P1;durP2;ratioP2;P2;SDS_P1;SDS_P2;PMS_P1;PMS_P2;Temp;Humidity;BMP_temperature;BMP_pressure;BME280_temperature;BME280_humidity;BME280_pressure;Samples;Min_cycle;Max_cycle;Signal;HPM_P1;HPM_P2
2024/02/21 00:03:01;;;;;;;7.65;2.33;;;;;;;7.20;100.00;99046.56;15283695;19;20028;-74
2024/02/21 00:08:26;;;;;;;8.32;2.28;;;;;;;7.25;100.00;99049.72;15280426;19;20020;-76
2024/02/21 00:13:50;;;;;;;7.93;2.40;;;;;;;7.32;100.00;99039.34;15272563;19;20014;-76
2024/02/21 00:19:18;;;;;;;7.53;2.13;;;;;;;7.32;100.00;99027.75;15280198;19;20018;-76
2024/02/21 00:24:42;;;;;;;9.80;2.28;;;;;;;7.31;100.00;99024.25;15304860;19;20611;-73
2024/02/21 00:30:07;;;;;;;8.63;2.08;;;;;;;7.29;100.00;99020.84;15283784;19;20074;-75
2024/02/21 00:35:34;;;;;;;10.77;2.40;;;;;;;7.27;100.00;99014.75;15276745;19;20029;-75
2024/02/21 00:40:59;;;;;;;8.15;2.60;;;;;;;7.23;100.00;99010.63;15295979;19;20021;-73
2024/02/21 00:46:24;;;;;;;7.45;2.05;;;;;;;7.23;100.00;99007.94;15182984;19;2003714;-73
2024/02/21 00:51:51;;;;;;;8.43;2.33;;;;;;;7.24;100.00;98988.19;15294882;19;20021;-74
2024/02/21 00:57:15;;;;;;;8.02;2.47;;;;;;;7.25;100.00;98995.25;15290831;19;20015;-75
2024/02/21 01:02:40;;;;;;;8.55;2.30;;;;;;;7.22;100.00;98991.00;15293668;19;20018;-74
2024/02/21 01:08:08;;;;;;;7.55;2.22;;;;;;;7.22;100.00;98990.16;15291419;19;20824;-73
2024/02/21 01:13:33;;;;;;;7.25;2.28;;;;;;;7.24;100.00;98982.81;15290133;19;20025;-74
2024/02/21 01:18:57;;;;;;;8.48;2.25;;;;;;;7.23;100.00;98981.16;15297817;19;20013;-73
2024/02/21 01:24:25;;;;;;;7.90;2.22;;;;;;;7.20;100.00;98973.34;15314457;19;20006;-73
2024/02/21 01:29:50;;;;;;;7.90;2.55;;;;;;;7.14;100.00;98965.81;15317521;19;20028;-75
2024/02/21 01:35:15;;;;;;;11.30;2.50;;;;;;;7.09;100.00;98959.00;15288646;19;20031;-74
2024/02/21 01:40:42;;;;;;;7.57;2.40;;;;;;;7.05;100.00;98949.50;15293730;19;20018;-74
2024/02/21 01:46:08;;;;;;;6.63;2.20;;;;;;;7.11;100.00;98958.03;15292932;19;20010;-75
2024/02/21 01:51:33;;;;;;;7.82;2.25;;;;;;;7.13;100.00;98942.66;15289501;19;20078;-73
2024/02/21 01:57:02;;;;;;;8.57;2.30;;;;;;;7.09;100.00;98926.84;15286748;19;20019;-73
2024/02/21 02:02:27;;;;;;;9.15;2.40;;;;;;;7.07;100.00;98911.88;15292754;19;20620;-73
2024/02/21 02:07:52;;;;;;;8.02;2.40;;;;;;;7.07;100.00;98914.53;15287372;19;20010;-73
2024/02/21 02:13:20;;;;;;;7.93;2.40;;;;;;;7.05;100.00;98898.63;15295002;19;20010;-73
2024/02/21 02:18:45;;;;;;;8.60;2.47;;;;;;;7.04;100.00;98902.25;15286714;19;20073;-73
2024/02/21 02:24:14;;;;;;;12.98;2.50;;;;;;;7.04;100.00;98896.06;15276920;19;20028;-73
2024/02/21 02:29:41;;;;;;;7.88;2.55;;;;;;;7.00;100.00;98895.44;15027348;19;5002318;-74
2024/02/21 02:35:13;;;;;;;9.48;2.40;;;;;;;6.93;100.00;98884.41;15278885;19;20022;-73
2024/02/21 02:40:41;;;;;;;7.60;2.15;;;;;;;6.88;100.00;98880.41;14775701;19;9999931;-74
2024/02/21 02:46:06;;;;;;;10.27;2.83;;;;;;;6.78;100.00;98881.16;15281460;19;20015;-74
2024/02/21 02:51:31;;;;;;;9.88;2.47;;;;;;;6.90;100.00;98883.78;15284285;19;20007;-73
2024/02/21 02:56:59;;;;;;;8.85;2.58;;;;;;;7.01;100.00;98899.81;15276154;19;20364;-73
2024/02/21 03:02:23;;;;;;;9.90;2.50;;;;;;;7.11;100.00;98891.06;15279851;19;20036;-73
2024/02/21 03:07:48;;;;;;;8.88;2.33;;;;;;;7.03;100.00;98884.47;15288564;19;20014;-74
2024/02/21 03:13:16;;;;;;;9.30;2.50;;;;;;;6.75;100.00;98876.06;15289434;19;20086;-73
2024/02/21 03:18:43;;;;;;;7.05;2.30;;;;;;;6.57;100.00;98889.13;15291235;19;20074;-81
2024/02/21 03:24:08;;;;;;;8.93;2.63;;;;;;;6.42;100.00;98890.34;15296447;19;20082;-80
2024/02/21 03:29:36;;;;;;;8.07;2.67;;;;;;;6.33;100.00;98886.59;15299620;19;20105;-81
2024/02/21 03:35:07;;;;;;;9.82;2.97;;;;;;;6.26;100.00;98886.22;15294165;19;20036;-81
2024/02/21 03:40:31;;;;;;;11.03;2.73;;;;;;;6.21;100.00;98888.44;15294974;19;20031;-82
2024/02/21 03:45:59;;;;;;;11.10;2.90;;;;;;;6.19;100.00;98898.41;15290786;19;20014;-82
2024/02/21 03:51:23;;;;;;;6.50;2.60;;;;;;;6.15;100.00;98903.16;15289135;19;20014;-81
2024/02/21 03:56:51;;;;;;;10.07;2.83;;;;;;;6.12;100.00;98906.06;15282877;19;20025;-81
2024/02/21 04:02:18;;;;;;;10.60;2.63;;;;;;;6.11;100.00;98906.19;15287652;19;20025;-81
2024/02/21 04:07:43;;;;;;;8.80;2.70;;;;;;;6.15;100.00;98899.59;15293081;19;20025;-81
2024/02/21 04:13:09;;;;;;;7.47;2.45;;;;;;;6.16;100.00;98895.94;15310920;19;20025;-82
2024/02/21 04:18:36;;;;;;;9.55;3.00;;;;;;;6.20;100.00;98886.72;15309838;19;20481;-82
2024/02/21 04:24:01;;;;;;;9.50;2.92;;;;;;;6.17;100.00;98882.44;15351948;19;20014;-84
2024/02/21 04:29:27;;;;;;;10.15;2.90;;;;;;;6.15;100.00;98880.88;15341723;19;20022;-83
2024/02/21 04:35:02;;;;;;;8.75;2.90;;;;;;;6.12;100.00;98881.97;15335837;19;20015;-83
2024/02/21 04:40:27;;;;;;;12.02;3.10;;;;;;;6.08;100.00;98875.16;15326513;19;20035;-80
2024/02/21 04:45:53;;;;;;;9.43;2.90;;;;;;;6.03;100.00;98863.97;15302023;19;20019;-80
2024/02/21 04:57:01;;;;;;;10.13;2.90;;;;;;;6.02;100.00;98867.63;15356019;19;20321;-82
2024/02/21 05:02:26;;;;;;;11.52;3.00;;;;;;;6.05;100.00;98872.75;15307712;19;20283;-82
2024/02/21 05:07:51;;;;;;;10.57;2.72;;;;;;;6.09;100.00;98862.66;15050025;19;5001727;-82
2024/02/21 05:13:19;;;;;;;9.57;2.78;;;;;;;6.14;100.00;98858.63;15326193;19;20041;-83
2024/02/21 05:18:44;;;;;;;8.20;2.75;;;;;;;6.15;100.00;98846.97;15334322;19;20030;-82
2024/02/21 05:24:09;;;;;;;10.82;2.70;;;;;;;6.15;100.00;98846.09;15329994;19;20015;-81
2024/02/21 05:29:36;;;;;;;7.97;2.60;;;;;;;6.16;100.00;98837.97;15317194;19;20074;-81
2024/02/21 05:35:01;;;;;;;8.55;2.92;;;;;;;6.13;100.00;98832.84;15315130;19;20018;-81
2024/02/21 05:40:25;;;;;;;10.60;2.97;;;;;;;6.12;100.00;98812.41;15320606;19;20031;-82
2024/02/21 05:45:53;;;;;;;8.25;2.67;;;;;;;6.11;100.00;98818.75;15319444;19;20017;-81
2024/02/21 05:51:17;;;;;;;9.50;2.78;;;;;;;6.10;100.00;98794.81;15314589;19;20488;-83
2024/02/21 05:56:43;;;;;;;7.25;3.08;;;;;;;6.07;100.00;98790.53;15309418;19;20018;-82
2024/02/21 06:02:10;;;;;;;8.75;2.78;;;;;;;6.06;100.00;98793.34;15309727;19;20449;-83
2024/02/21 06:07:35;;;;;;;7.70;2.90;;;;;;;6.02;100.00;98792.75;15304834;19;20018;-84
2024/02/21 06:12:59;;;;;;;8.77;2.92;;;;;;;5.96;100.00;98787.81;15320835;19;20011;-82
2024/02/21 06:18:28;;;;;;;10.45;2.72;;;;;;;5.93;100.00;98790.78;15360140;19;20026;-84
2024/02/21 06:23:52;;;;;;;9.32;2.88;;;;;;;5.97;100.00;98795.75;15351019;19;20014;-81
2024/02/21 06:29:17;;;;;;;6.80;2.58;;;;;;;6.03;100.00;98799.78;15329510;19;20022;-81
2024/02/21 06:34:44;;;;;;;8.70;2.63;;;;;;;6.08;100.00;98800.25;15319660;19;20021;-80
2024/02/21 06:40:09;;;;;;;8.13;2.60;;;;;;;6.11;100.00;98808.03;15300867;19;20062;-80
2024/02/21 06:45:34;;;;;;;11.38;2.83;;;;;;;6.12;100.00;98804.41;15307166;19;20025;-80
2024/02/21 06:51:01;;;;;;;7.20;2.60;;;;;;;6.15;100.00;98788.09;15290719;19;20481;-79
2024/02/21 06:56:28;;;;;;;5.88;2.47;;;;;;;6.20;100.00;98794.88;15297420;19;20031;-78
2024/02/21 07:01:55;;;;;;;8.25;2.75;;;;;;;6.24;100.00;98813.25;15306484;19;20521;-82
2024/02/21 07:07:22;;;;;;;10.60;2.85;;;;;;;6.28;100.00;98835.28;15302943;19;20081;-82
2024/02/21 07:12:48;;;;;;;8.23;2.53;;;;;;;6.32;100.00;98837.56;15305533;19;20085;-79
2024/02/21 07:18:14;;;;;;;7.63;2.20;;;;;;;6.35;100.00;98836.47;15301441;19;20082;-80
2024/02/21 07:23:41;;;;;;;7.35;2.33;;;;;;;6.38;100.00;98852.28;15312197;19;20035;-80
2024/02/21 07:29:06;;;;;;;8.15;2.63;;;;;;;6.42;100.00;98863.59;15312125;19;20039;-80
2024/02/21 07:34:30;;;;;;;7.65;2.85;;;;;;;6.47;100.00;98840.81;15300851;19;20029;-82
2024/02/21 07:39:57;;;;;;;8.57;3.05;;;;;;;6.55;100.00;98820.59;15291426;19;20081;-82
2024/02/21 07:45:24;;;;;;;7.43;2.70;;;;;;;6.55;100.00;98807.22;15296427;19;20027;-82
2024/02/21 07:50:52;;;;;;;9.07;2.85;;;;;;;6.52;100.00;98815.53;15043944;19;5000829;-83
2024/02/21 07:56:30;;;;;;;5.20;2.33;;;;;;;6.48;100.00;98804.19;15340527;19;19998;-85
2024/02/21 08:01:58;;;;;;;7.55;2.58;;;;;;;6.47;100.00;98808.72;15305619;19;20368;-83
2024/02/21 08:07:23;;;;;;;6.65;2.50;;;;;;;6.48;100.00;98826.47;15288104;19;20479;-84
2024/02/21 08:12:53;;;;;;;7.00;2.92;;;;;;;6.50;100.00;98823.66;15292032;19;20271;-79
2024/02/21 08:18:19;;;;;;;6.13;2.63;;;;;;;6.52;100.00;98826.22;15330220;19;20022;-80
2024/02/21 08:23:44;;;;;;;7.45;2.95;;;;;;;6.54;100.00;98822.44;15339496;19;20015;-80
2024/02/21 08:29:12;;;;;;;6.75;2.72;;;;;;;6.61;100.00;98820.13;15317151;19;20027;-82
2024/02/21 08:34:37;;;;;;;6.22;2.45;;;;;;;6.68;100.00;98821.28;15306494;19;20078;-81
2024/02/21 08:40:04;;;;;;;8.40;3.00;;;;;;;6.73;100.00;98818.22;15296413;19;20089;-80
2024/02/21 08:45:31;;;;;;;5.78;2.70;;;;;;;6.79;100.00;98807.88;15294965;19;20014;-80
2024/02/21 08:50:56;;;;;;;5.22;2.45;;;;;;;6.85;100.00;98800.31;15291940;19;20462;-81
2024/02/21 08:56:23;;;;;;;7.68;2.20;;;;;;;6.90;100.00;98784.69;15293866;19;20038;-80
2024/02/21 09:01:50;;;;;;;6.80;2.70;;;;;;;6.95;100.00;98787.84;15306300;19;20019;-81
2024/02/21 09:07:15;;;;;;;7.18;2.58;;;;;;;7.02;100.00;98778.31;15300672;19;20775;-82
2024/02/21 09:12:40;;;;;;;8.02;2.45;;;;;;;7.09;100.00;98766.09;15318116;19;20014;-80
2024/02/21 09:18:07;;;;;;;8.93;2.67;;;;;;;7.16;100.00;98762.88;15309963;19;20018;-80
2024/02/21 09:23:32;;;;;;;8.52;2.60;;;;;;;7.26;100.00;98755.75;15302359;19;20075;-81
2024/02/21 09:28:57;;;;;;;8.02;2.47;;;;;;;7.35;100.00;98754.94;15303042;19;20098;-81
2024/02/21 09:34:25;;;;;;;4.70;2.25;;;;;;;7.46;100.00;98745.16;15315075;19;20041;-81
2024/02/21 09:39:52;;;;;;;8.05;2.63;;;;;;;7.56;100.00;98740.69;15301812;19;20017;-80
2024/02/21 09:45:23;;;;;;;7.18;2.13;;;;;;;7.68;100.00;98733.38;15303591;19;20019;-81
2024/02/21 09:50:52;;;;;;;6.73;2.20;;;;;;;7.82;100.00;98724.13;15298826;19;20022;-81
2024/02/21 09:56:18;;;;;;;5.75;2.15;;;;;;;7.89;100.00;98722.59;15303537;19;20315;-81
2024/02/21 10:01:42;;;;;;;6.32;2.13;;;;;;;7.98;100.00;98704.84;15308377;19;20025;-82
2024/02/21 10:07:11;;;;;;;5.78;2.20;;;;;;;8.14;100.00;98688.19;15301600;19;20018;-81
2024/02/21 10:12:35;;;;;;;7.18;2.30;;;;;;;8.27;100.00;98690.59;15308877;19;20011;-80
2024/02/21 10:18:03;;;;;;;6.35;2.47;;;;;;;8.35;100.00;98692.59;15297523;19;20098;-80
2024/02/21 10:23:30;;;;;;;5.30;2.13;;;;;;;8.37;100.00;98683.41;15307042;19;20031;-80
2024/02/21 10:28:57;;;;;;;5.93;2.60;;;;;;;8.48;100.00;98682.44;15309809;19;20022;-83
2024/02/21 10:34:26;;;;;;;4.22;2.00;;;;;;;8.60;100.00;98669.72;15306246;19;20025;-80
2024/02/21 10:40:04;;;;;;;5.20;2.17;;;;;;;8.62;100.00;98673.09;15306788;19;20014;-80
2024/02/21 10:45:33;;;;;;;4.13;1.77;;;;;;;8.62;100.00;98657.84;15301592;19;20021;-81
2024/02/21 10:51:06;;;;;;;2.97;1.60;;;;;;;8.69;100.00;98650.06;15310261;19;20015;-80
2024/02/21 10:56:41;;;;;;;5.47;1.60;;;;;;;8.79;100.00;98625.84;15288598;19;20372;-60
2024/02/21 11:02:07;;;;;;;3.00;1.20;;;;;;;8.93;100.00;98611.97;15287088;19;20547;-59
2024/02/21 11:07:32;;;;;;;3.28;1.30;;;;;;;9.07;100.00;98601.75;15276782;19;20033;-60
2024/02/21 11:13:08;;;;;;;2.92;1.30;;;;;;;9.18;100.00;98577.38;15289842;19;20023;-59
2024/02/21 11:18:33;;;;;;;2.72;1.20;;;;;;;9.15;100.00;98566.91;15287465;19;20364;-59
2024/02/21 11:23:58;;;;;;;2.95;1.25;;;;;;;9.27;100.00;98577.47;15285078;19;20081;-60
2024/02/21 11:29:33;;;;;;;4.07;1.50;;;;;;;9.50;100.00;98554.53;15286285;19;20035;-58
2024/02/21 11:35:01;;;;;;;2.53;1.15;;;;;;;9.64;100.00;98520.06;15283096;19;20018;-57
2024/02/21 11:40:26;;;;;;;2.83;1.10;;;;;;;9.72;100.00;98520.13;15279772;19;20018;-60
2024/02/21 11:46:00;;;;;;;4.63;1.50;;;;;;;9.79;100.00;98483.56;15286628;19;20419;-59
2024/02/21 11:51:34;;;;;;;2.92;1.27;;;;;;;9.79;100.00;98480.88;15285583;19;20016;-58
2024/02/21 11:57:05;;;;;;;3.33;1.25;;;;;;;9.92;100.00;98483.16;15273808;19;20113;-58
2024/02/21 12:02:33;;;;;;;3.30;1.23;;;;;;;10.06;100.00;98470.97;15269142;19;20419;-58
2024/02/21 12:07:58;;;;;;;4.13;1.38;;;;;;;10.20;100.00;98458.81;15272644;19;20371;-58
2024/02/21 12:13:26;;;;;;;2.70;1.10;;;;;;;10.31;100.00;98454.97;15288086;19;20128;-60
2024/02/21 12:18:53;;;;;;;3.45;1.50;;;;;;;10.40;100.00;98428.97;15284841;19;20023;-60
2024/02/21 12:24:21;;;;;;;3.47;1.20;;;;;;;10.46;100.00;98420.28;15285252;19;20015;-61
2024/02/21 12:29:45;;;;;;;4.03;1.27;;;;;;;10.46;100.00;98404.13;15276886;19;20018;-59
2024/02/21 12:35:13;;;;;;;2.72;1.20;;;;;;;10.45;100.00;98397.88;15289879;19;20025;-60
2024/02/21 12:40:37;;;;;;;1.60;1.00;;;;;;;10.50;100.00;98378.53;15292324;19;20025;-57
2024/02/21 12:46:02;;;;;;;3.95;1.38;;;;;;;10.62;100.00;98360.25;15297125;19;20019;-61
2024/02/21 12:51:29;;;;;;;2.25;0.95;;;;;;;10.70;100.00;98340.56;15296274;19;20021;-59
2024/02/21 12:56:54;;;;;;;2.95;1.23;;;;;;;10.75;100.00;98330.97;15290267;19;20019;-61
2024/02/21 13:02:19;;;;;;;3.65;1.15;;;;;;;10.90;100.00;98330.31;15299538;19;20467;-59
2024/02/21 13:07:48;;;;;;;4.45;1.58;;;;;;;11.04;100.00;98296.50;15284767;19;20467;-60
2024/02/21 13:13:13;;;;;;;3.10;1.00;;;;;;;11.20;100.00;98301.03;15297647;19;20019;-59
2024/02/21 13:18:39;;;;;;;3.17;1.15;;;;;;;11.25;100.00;98290.56;15295613;19;20023;-60
2024/02/21 13:24:06;;;;;;;2.17;1.00;;;;;;;11.37;100.00;98280.31;15294909;19;20046;-59
2024/02/21 13:29:31;;;;;;;4.47;1.42;;;;;;;11.35;100.00;98277.75;15285948;19;20026;-58
2024/02/21 13:34:59;;;;;;;3.50;1.13;;;;;;;11.44;100.00;98273.22;15289587;19;20844;-60
2024/02/21 13:40:20;;;;;;;4.70;1.30;;;;;;;11.48;100.00;98262.91;15282095;19;20014;-60
2024/02/21 13:45:59;;;;;;;6.45;1.42;;;;;;;11.56;100.00;98254.81;15287757;19;20022;-59
2024/02/21 13:51:24;;;;;;;3.95;1.35;;;;;;;11.67;100.00;98246.38;15293055;19;20021;-58
2024/02/21 13:56:59;;;;;;;3.40;1.30;;;;;;;11.69;100.00;98241.63;15289591;19;20029;-61
2024/02/21 14:02:26;;;;;;;1.92;1.05;;;;;;;11.62;100.00;98259.50;15288032;19;20071;-58
2024/02/21 14:07:54;;;;;;;2.63;1.10;;;;;;;11.52;100.00;98250.78;15283468;19;20018;-59
2024/02/21 14:13:22;;;;;;;2.17;1.08;;;;;;;11.38;100.00;98242.38;15287099;19;20011;-58
2024/02/21 14:18:46;;;;;;;2.08;1.00;;;;;;;11.28;100.00;98241.72;15281975;19;20010;-60
2024/02/21 14:24:11;;;;;;;4.90;1.20;;;;;;;11.33;100.00;98238.50;15289350;19;20019;-59
2024/02/21 14:29:39;;;;;;;3.53;1.35;;;;;;;11.57;100.00;98229.53;15285409;19;20035;-60
2024/02/21 14:35:04;;;;;;;3.63;1.30;;;;;;;11.44;100.00;98207.63;15291466;19;20038;-58
2024/02/21 14:40:29;;;;;;;2.35;1.10;;;;;;;11.32;100.00;98202.59;15282282;19;20435;-59
2024/02/21 14:45:57;;;;;;;3.72;1.50;;;;;;;11.26;100.00;98181.69;15286147;19;20357;-60
2024/02/21 14:51:22;;;;;;;2.75;1.20;;;;;;;11.22;100.00;98172.28;15291832;19;20010;-60
2024/02/21 14:56:47;;;;;;;3.75;1.33;;;;;;;11.06;100.00;98168.59;15277300;19;20086;-60
2024/02/21 15:02:16;;;;;;;4.32;1.30;;;;;;;10.91;100.00;98159.50;15291903;19;20010;-59
2024/02/21 15:07:42;;;;;;;4.88;1.40;;;;;;;10.78;100.00;98149.25;15279809;19;20029;-57
2024/02/21 15:13:07;;;;;;;3.10;1.20;;;;;;;10.68;100.00;98152.13;15290484;19;20019;-60
2024/02/21 15:18:37;;;;;;;3.15;1.20;;;;;;;10.59;100.00;98142.34;15278994;19;20010;-54
2024/02/21 15:24:03;;;;;;;3.85;1.40;;;;;;;10.54;100.00;98147.38;15289271;19;20025;-60
2024/02/21 15:29:28;;;;;;;4.25;1.38;;;;;;;10.47;100.00;98131.91;15285293;19;20010;-60
2024/02/21 15:35:03;;;;;;;2.83;1.30;;;;;;;10.39;100.00;98113.06;15280537;19;20042;-59
2024/02/21 15:40:28;;;;;;;4.40;1.40;;;;;;;10.26;100.00;98085.78;15023897;19;5001945;-61
2024/02/21 15:45:52;;;;;;;3.45;1.40;;;;;;;10.16;100.00;98091.31;15284573;19;20378;-57
2024/02/21 15:51:20;;;;;;;3.85;1.38;;;;;;;10.04;100.00;98085.41;15257667;19;20573;-58
2024/02/21 15:56:45;;;;;;;4.30;1.50;;;;;;;9.92;100.00;98079.50;15283112;19;20039;-56
2024/02/21 16:02:10;;;;;;;2.80;1.05;;;;;;;9.77;100.00;98065.84;15284623;19;20021;-60
2024/02/21 16:07:37;;;;;;;3.80;1.40;;;;;;;9.63;100.00;98059.28;15279406;19;20034;-60
2024/02/21 16:13:02;;;;;;;3.10;1.30;;;;;;;9.50;100.00;98043.59;15278404;19;20341;-59
2024/02/21 16:18:28;;;;;;;3.45;1.35;;;;;;;9.36;100.00;98044.22;15281111;19;20058;-60
2024/02/21 16:23:55;;;;;;;3.50;1.40;;;;;;;9.23;100.00;98052.75;15277237;19;20022;-59
2024/02/21 16:29:22;;;;;;;3.13;1.40;;;;;;;9.08;100.00;98036.41;15271296;19;20083;-59
2024/02/21 16:34:47;;;;;;;4.50;1.30;;;;;;;8.97;100.00;98032.13;15281340;19;20473;-60
2024/02/21 16:40:18;;;;;;;3.60;1.50;;;;;;;8.89;100.00;98019.50;15278886;19;20046;-54
2024/02/21 16:45:43;;;;;;;1.53;1.00;;;;;;;8.80;100.00;98025.84;15278801;19;20053;-59
2024/02/21 16:51:08;;;;;;;2.35;1.13;;;;;;;8.71;100.00;98006.16;15281053;19;20539;-56
2024/02/21 16:56:36;;;;;;;4.13;1.50;;;;;;;8.64;100.00;97995.19;15276911;19;20474;-57
2024/02/21 17:02:02;;;;;;;4.05;1.58;;;;;;;8.63;100.00;97985.50;15279480;19;20869;-56
2024/02/21 17:07:27;;;;;;;4.38;1.63;;;;;;;8.63;100.00;97961.31;15278067;19;20014;-55
2024/02/21 17:12:54;;;;;;;2.85;1.48;;;;;;;8.62;100.00;97930.09;15276780;19;20031;-54
2024/02/21 17:18:19;;;;;;;3.85;1.42;;;;;;;8.62;100.00;97905.94;15279342;19;20015;-57
2024/02/21 17:23:43;;;;;;;4.47;1.48;;;;;;;8.64;100.00;97898.53;15294396;19;20014;-61
2024/02/21 17:29:13;;;;;;;4.05;1.40;;;;;;;8.61;100.00;97914.13;15024369;19;5001673;-54
2024/02/21 17:34:37;;;;;;;3.75;1.40;;;;;;;8.56;100.00;97925.34;15293721;19;20018;-61
2024/02/21 17:40:04;;;;;;;5.22;1.50;;;;;;;8.55;100.00;97929.03;15285942;19;21155;-57
2024/02/21 17:45:32;;;;;;;3.42;1.10;;;;;;;8.53;100.00;97927.53;15295613;19;20468;-56
2024/02/21 17:50:58;;;;;;;5.60;1.30;;;;;;;8.50;100.00;97920.66;15285954;19;20044;-57
2024/02/21 17:56:22;;;;;;;3.80;1.20;;;;;;;8.47;100.00;97915.56;15280916;19;20047;-58
2024/02/21 18:01:51;;;;;;;4.75;1.42;;;;;;;8.46;100.00;97900.44;15292795;19;20472;-60
2024/02/21 18:07:15;;;;;;;5.63;1.52;;;;;;;8.44;100.00;97886.34;15293009;19;20467;-58
2024/02/21 18:12:42;;;;;;;3.20;1.30;;;;;;;8.43;100.00;97872.09;15288725;19;20010;-64
2024/02/21 18:18:09;;;;;;;4.80;1.30;;;;;;;8.42;100.00;97867.72;15290762;19;20018;-61
2024/02/21 18:23:36;;;;;;;3.42;1.30;;;;;;;8.42;100.00;97920.56;15289900;19;20024;-57
2024/02/21 18:29:02;;;;;;;3.78;1.20;;;;;;;8.44;100.00;97899.75;15280023;19;20808;-58
2024/02/21 18:34:29;;;;;;;4.88;1.55;;;;;;;8.42;100.00;97899.06;15289125;19;20559;-53
2024/02/21 18:39:55;;;;;;;3.63;1.30;;;;;;;8.43;100.00;97904.31;15284265;19;20898;-63
2024/02/21 18:45:20;;;;;;;5.18;1.30;;;;;;;8.39;100.00;97904.78;15292164;19;20018;-60
2024/02/21 18:50:47;;;;;;;3.90;1.20;;;;;;;8.37;100.00;97885.31;15284196;19;20017;-57
2024/02/21 18:56:18;;;;;;;3.05;1.10;;;;;;;8.36;100.00;97862.16;15290947;19;20507;-58
2024/02/21 19:01:44;;;;;;;5.55;1.25;;;;;;;8.36;100.00;97862.16;15285858;19;20361;-61
2024/02/21 19:07:11;;;;;;;2.67;1.20;;;;;;;8.38;100.00;97850.25;15276856;19;20367;-55
2024/02/21 19:12:36;;;;;;;3.17;1.20;;;;;;;8.40;100.00;97836.69;15291274;19;20022;-61
2024/02/21 19:18:01;;;;;;;2.72;1.20;;;;;;;8.45;100.00;97818.22;15287055;19;20094;-55
2024/02/21 19:23:28;;;;;;;3.20;1.20;;;;;;;8.54;100.00;97814.59;15282191;19;20082;-57
2024/02/21 19:28:53;;;;;;;2.97;1.20;;;;;;;8.63;100.00;97792.16;15286504;19;20017;-57
2024/02/21 19:34:18;;;;;;;3.08;1.20;;;;;;;8.68;100.00;97774.69;15282232;19;20039;-61
2024/02/21 19:39:45;;;;;;;3.40;1.17;;;;;;;8.73;100.00;97761.63;15282297;19;20074;-59
2024/02/21 19:45:11;;;;;;;2.78;1.20;;;;;;;8.75;100.00;97755.06;15283238;19;20490;-57
2024/02/21 19:50:38;;;;;;;3.25;1.00;;;;;;;8.84;100.00;97744.31;15279590;19;20030;-57
2024/02/21 19:56:08;;;;;;;4.00;1.00;;;;;;;8.89;100.00;97737.44;15281638;19;20032;-57
2024/02/21 20:01:32;;;;;;;1.90;0.85;;;;;;;8.99;100.00;97718.47;15286220;19;20676;-55
2024/02/21 20:06:58;;;;;;;2.60;1.00;;;;;;;9.08;100.00;97705.88;15279959;19;20083;-55
2024/02/21 20:12:26;;;;;;;2.38;1.00;;;;;;;9.12;100.00;97693.78;15284191;19;20014;-58
2024/02/21 20:17:51;;;;;;;2.30;0.90;;;;;;;9.10;100.00;97690.44;15284791;19;20014;-51
2024/02/21 20:23:15;;;;;;;3.35;1.10;;;;;;;9.12;100.00;97683.03;15285767;19;20073;-59
2024/02/21 20:28:42;;;;;;;2.42;0.70;;;;;;;9.18;100.00;97668.91;15279624;19;20413;-54
2024/02/21 20:34:07;;;;;;;2.63;1.10;;;;;;;9.21;100.00;97679.34;15285094;19;20035;-54
2024/02/21 20:39:32;;;;;;;2.47;0.93;;;;;;;9.21;100.00;97668.59;15276739;19;20032;-55
2024/02/21 20:44:59;;;;;;;2.72;1.13;;;;;;;9.27;100.00;97664.38;15278919;19;20014;-59
2024/02/21 20:50:24;;;;;;;2.85;1.20;;;;;;;9.34;100.00;97651.09;15276270;19;20078;-56
2024/02/21 20:55:49;;;;;;;4.25;0.93;;;;;;;9.37;100.00;97642.66;15290626;19;20015;-53
2024/02/21 21:01:18;;;;;;;2.83;1.10;;;;;;;9.43;100.00;97628.53;15294913;19;20384;-53
2024/02/21 21:06:42;;;;;;;2.15;1.13;;;;;;;9.45;100.00;97620.28;15290778;19;20574;-54
2024/02/21 21:12:08;;;;;;;1.85;1.10;;;;;;;9.47;100.00;97624.47;15288846;19;20026;-52
2024/02/21 21:17:35;;;;;;;2.75;1.00;;;;;;;9.46;100.00;97614.75;15294176;19;20022;-54
2024/02/21 21:23:00;;;;;;;1.88;0.90;;;;;;;9.48;100.00;97588.50;15296075;19;20025;-54
2024/02/21 21:28:24;;;;;;;3.53;1.10;;;;;;;9.46;100.00;97566.38;15287620;19;20014;-54
2024/02/21 21:33:52;;;;;;;2.47;1.00;;;;;;;9.45;100.00;97583.50;15292917;19;20021;-52
2024/02/21 21:39:19;;;;;;;2.00;0.90;;;;;;;9.43;100.00;97604.34;15292518;19;20610;-57
2024/02/21 21:44:44;;;;;;;3.10;1.00;;;;;;;9.44;100.00;97592.56;15290502;19;20074;-54
2024/02/21 21:50:11;;;;;;;2.38;1.10;;;;;;;9.38;100.00;97585.19;15284432;19;20830;-52
2024/02/21 21:55:37;;;;;;;2.97;1.17;;;;;;;9.39;100.00;97576.13;15292722;19;20010;-53
2024/02/21 22:01:02;;;;;;;2.67;0.88;;;;;;;9.42;100.00;97551.59;15285859;19;20017;-52
2024/02/21 22:06:30;;;;;;;2.45;1.00;;;;;;;9.44;100.00;97544.19;15286810;19;20018;-53
2024/02/21 22:11:55;;;;;;;2.33;1.00;;;;;;;9.42;100.00;97530.09;15287664;19;20019;-56
2024/02/21 22:17:20;;;;;;;1.70;0.85;;;;;;;9.42;100.00;97513.94;15287247;19;20029;-55
2024/02/21 22:22:47;;;;;;;2.13;0.88;;;;;;;9.39;100.00;97512.47;15293013;19;20015;-55
2024/02/21 22:28:12;;;;;;;4.13;0.90;;;;;;;9.41;100.00;97490.75;15282546;19;20022;-56
2024/02/21 22:33:36;;;;;;;2.30;0.88;;;;;;;9.41;100.00;97477.31;15293639;19;20024;-54
2024/02/21 22:39:04;;;;;;;3.10;0.93;;;;;;;9.41;100.00;97463.88;15280952;19;20035;-53
2024/02/21 22:44:28;;;;;;;2.50;0.93;;;;;;;9.43;100.00;97478.00;15289689;19;20505;-53
2024/02/21 22:49:53;;;;;;;2.75;1.00;;;;;;;9.45;100.00;97462.53;15282562;19;20093;-54
2024/02/21 22:55:20;;;;;;;1.98;0.90;;;;;;;9.47;100.00;97457.78;15292090;19;20025;-53
2024/02/21 23:00:51;;;;;;;2.88;0.77;;;;;;;9.45;100.00;97438.34;15285159;19;20027;-53
2024/02/21 23:06:16;;;;;;;2.07;0.77;;;;;;;9.40;100.00;97433.50;15285063;19;20014;-52
2024/02/21 23:11:43;;;;;;;1.60;0.82;;;;;;;9.40;100.00;97416.50;15288798;19;20346;-54
2024/02/21 23:17:08;;;;;;;2.30;0.80;;;;;;;9.41;100.00;97389.44;15285083;19;20015;-52
2024/02/21 23:22:32;;;;;;;2.00;0.80;;;;;;;9.45;100.00;97371.13;15285143;19;20018;-54
2024/02/21 23:28:00;;;;;;;2.90;0.68;;;;;;;9.52;100.00;97353.25;15279934;19;20015;-52
2024/02/21 23:33:32;;;;;;;1.35;0.60;;;;;;;9.59;100.00;97334.53;15289939;19;20018;-53
2024/02/21 23:38:57;;;;;;;2.63;0.90;;;;;;;9.65;100.00;97343.72;15278488;19;20415;-52
2024/02/21 23:44:24;;;;;;;1.85;0.70;;;;;;;9.63;100.00;97327.78;15288344;19;20094;-52
2024/02/21 23:49:49;;;;;;;1.42;0.60;;;;;;;9.58;100.00;97315.91;15286513;19;20354;-60
2024/02/21 23:55:13;;;;;;;1.42;0.60;;;;;;;9.40;100.00;97311.69;15286617;19;20022;-57
